Time;durP1;ratioP1;P1;durP2;ratioP2;P2;SDS_P1;SDS_P2;PMS_P1;PMS_P2;Temp;Humidity;BMP_temperature;BMP_pressure;BME280_temperature;BME280_humidity;BME280_pressure;Samples;Min_cycle;Max_cycle;Signal;HPM_P1;HPM_P2
2020/12/10 00:00:23;;;;;;;21.60;8.70;;;3.40;99.90;;;;;;5066650;28;20507;-77
2020/12/10 00:02:49;;;;;;;22.92;8.75;;;3.40;99.90;;;;;;5065184;28;20020;-77
2020/12/10 00:05:15;;;;;;;19.52;8.48;;;3.40;99.90;;;;;;5064654;28;20032;-77
2020/12/10 00:07:40;;;;;;;18.67;7.68;;;3.40;99.90;;;;;;5066194;28;20029;-77
2020/12/10 00:10:08;;;;;;;18.52;8.02;;;3.50;99.90;;;;;;5066060;28;20085;-76
2020/12/10 00:12:43;;;;;;;19.50;7.60;;;3.40;99.90;;;;;;5066006;28;20024;-77
2020/12/10 00:15:09;;;;;;;27.05;8.50;;;3.50;99.90;;;;;;5066316;28;20013;-77
2020/12/10 00:17:35;;;;;;;27.13;10.02;;;3.40;99.90;;;;;;5065986;28;20044;-77
2020/12/10 00:20:03;;;;;;;24.60;8.73;;;3.50;99.90;;;;;;5065999;28;20028;-77
2020/12/10 00:22:32;;;;;;;21.35;8.07;;;3.50;99.90;;;;;;5064749;28;20025;-77
2020/12/10 00:24:58;;;;;;;32.50;8.77;;;3.40;99.90;;;;;;5064924;28;20022;-76
2020/12/10 00:27:24;;;;;;;17.00;6.97;;;3.40;99.90;;;;;;5066093;28;20036;-77
2020/12/10 00:29:50;;;;;;;23.63;8.88;;;3.40;99.90;;;;;;5066526;28;20032;-76
2020/12/10 00:32:16;;;;;;;25.08;9.55;;;3.40;99.90;;;;;;5066720;28;20473;-77
2020/12/10 00:34:44;;;;;;;28.15;9.32;;;3.40;99.90;;;;;;5065807;28;20439;-77
2020/12/10 00:37:10;;;;;;;26.50;8.85;;;3.40;99.90;;;;;;5064301;28;20031;-77
2020/12/10 00:39:36;;;;;;;44.13;10.40;;;3.40;99.90;;;;;;5065654;28;20017;-77
2020/12/10 00:42:05;;;;;;;25.48;9.85;;;3.30;99.90;;;;;;5065527;28;20082;-77
2020/12/10 00:44:31;;;;;;;20.73;9.43;;;3.30;99.90;;;;;;5064264;28;20028;-77
2020/12/10 00:46:57;;;;;;;21.20;9.73;;;3.30;99.90;;;;;;5065488;28;20021;-77
2020/12/10 00:49:24;;;;;;;18.08;7.40;;;3.30;99.90;;;;;;5065611;28;20036;-77
2020/12/10 00:51:50;;;;;;;27.55;8.73;;;3.40;99.90;;;;;;5065667;28;20032;-76
2020/12/10 00:54:16;;;;;;;31.23;10.15;;;3.30;99.90;;;;;;5065491;28;20025;-76
2020/12/10 00:56:42;;;;;;;27.58;8.25;;;3.40;99.90;;;;;;5064046;28;20024;-76
2020/12/10 00:59:08;;;;;;;17.05;7.72;;;3.40;99.90;;;;;;5064022;28;20029;-76
2020/12/10 01:01:34;;;;;;;22.95;9.70;;;3.40;99.90;;;;;;5064968;28;20033;-77
2020/12/10 01:03:59;;;;;;;20.05;7.75;;;3.40;99.90;;;;;;5064048;28;20076;-76
2020/12/10 01:06:25;;;;;;;21.25;9.38;;;3.50;99.90;;;;;;5065490;28;20033;-77
2020/12/10 01:08:51;;;;;;;30.60;9.32;;;3.40;99.90;;;;;;5065669;28;20078;-76
2020/12/10 01:11:18;;;;;;;26.80;9.90;;;3.40;99.90;;;;;;5063759;28;20033;-76
2020/12/10 01:13:44;;;;;;;30.48;10.50;;;3.40;99.90;;;;;;5065203;28;20052;-76
2020/12/10 01:16:09;;;;;;;28.73;9.40;;;3.40;99.90;;;;;;5063696;28;20024;-76
2020/12/10 01:18:35;;;;;;;20.52;8.10;;;3.40;99.90;;;;;;5065162;28;20031;-77
2020/12/10 01:21:00;;;;;;;23.02;8.77;;;3.40;99.90;;;;;;5063712;28;20100;-76
2020/12/10 01:23:26;;;;;;;25.15;8.82;;;3.40;99.90;;;;;;5063835;28;20017;-77
2020/12/10 01:25:52;;;;;;;27.40;8.95;;;3.40;99.90;;;;;;5065102;28;20071;-76
2020/12/10 01:28:18;;;;;;;29.08;9.63;;;3.50;99.90;;;;;;5063757;28;20032;-76
2020/12/10 01:30:43;;;;;;;21.45;8.10;;;3.50;99.90;;;;;;5063554;28;20029;-76
2020/12/10 01:33:09;;;;;;;33.50;10.20;;;3.50;99.90;;;;;;5064822;28;20139;-76
2020/12/10 01:35:34;;;;;;;32.22;8.95;;;3.50;99.90;;;;;;5064698;28;20029;-77
2020/12/10 01:38:00;;;;;;;21.83;9.85;;;3.50;99.90;;;;;;5063421;28;20028;-77
2020/12/10 01:40:25;;;;;;;22.80;9.30;;;3.50;99.90;;;;;;5064892;28;20028;-77
2020/12/10 01:42:51;;;;;;;21.90;8.88;;;3.50;99.90;;;;;;5064851;28;20056;-76
2020/12/10 01:45:16;;;;;;;20.40;8.10;;;3.50;99.90;;;;;;5063586;28;20025;-76
2020/12/10 01:47:43;;;;;;;22.02;8.40;;;3.50;99.90;;;;;;5063389;28;20042;-77
2020/12/10 01:50:08;;;;;;;20.73;7.25;;;3.40;99.90;;;;;;5063180;28;20033;-76
2020/12/10 01:52:34;;;;;;;27.52;7.55;;;3.40;99.90;;;;;;5063144;28;20116;-76
2020/12/10 01:55:01;;;;;;;22.77;8.77;;;3.40;99.90;;;;;;5064701;28;20025;-76
2020/12/10 01:57:28;;;;;;;19.85;8.52;;;3.30;99.90;;;;;;5063422;28;20017;-77
2020/12/10 01:59:55;;;;;;;22.00;7.28;;;3.30;99.90;;;;;;5064720;28;20021;-76
2020/12/10 02:02:20;;;;;;;21.10;8.48;;;3.40;99.90;;;;;;5063429;28;20025;-76
2020/12/10 02:04:46;;;;;;;18.55;8.13;;;3.40;99.90;;;;;;5064417;28;20059;-76
2020/12/10 02:07:11;;;;;;;29.50;9.18;;;3.40;99.90;;;;;;5063043;28;20404;-76
2020/12/10 02:09:37;;;;;;;25.77;9.18;;;3.40;99.90;;;;;;5063177;28;20052;-76
2020/12/10 02:12:03;;;;;;;29.15;8.85;;;3.40;99.90;;;;;;5064394;28;20032;-76
2020/12/10 02:14:37;;;;;;;13.60;6.72;;;3.40;99.90;;;;;;5065377;28;20086;-77
2020/12/10 02:17:05;;;;;;;15.55;7.18;;;3.40;99.90;;;;;;5068347;28;20021;-76
2020/12/10 02:19:30;;;;;;;30.38;9.52;;;3.50;99.90;;;;;;5068453;28;20505;-76
2020/12/10 02:21:56;;;;;;;18.95;7.75;;;3.50;99.90;;;;;;5068387;28;20028;-77
2020/12/10 02:24:22;;;;;;;24.73;8.70;;;3.50;99.90;;;;;;5068596;28;20025;-77
2020/12/10 02:26:48;;;;;;;31.10;8.45;;;3.60;99.90;;;;;;5067020;28;20041;-76
2020/12/10 02:29:19;;;;;;;18.88;9.43;;;3.60;99.90;;;;;;5067899;28;20025;-77
2020/12/10 02:31:46;;;;;;;19.42;7.80;;;3.60;99.90;;;;;;5066870;28;20029;-76
2020/12/10 02:34:12;;;;;;;22.67;9.00;;;3.60;99.90;;;;;;5068027;28;20075;-77
2020/12/10 02:36:38;;;;;;;20.75;8.10;;;3.60;99.90;;;;;;5067898;28;20025;-76
2020/12/10 02:39:06;;;;;;;19.70;8.68;;;3.60;99.90;;;;;;5066595;28;20025;-76
2020/12/10 02:41:32;;;;;;;23.40;8.55;;;3.70;99.90;;;;;;5068083;28;20028;-77
2020/12/10 02:43:57;;;;;;;21.58;9.13;;;3.70;99.90;;;;;;5066577;28;20021;-76
2020/12/10 02:46:23;;;;;;;36.22;8.68;;;3.70;99.90;;;;;;5068136;28;20021;-77
2020/12/10 02:48:49;;;;;;;17.23;7.53;;;3.70;99.90;;;;;;5067997;28;20506;-76
2020/12/10 02:51:14;;;;;;;23.50;7.63;;;3.60;99.90;;;;;;5066354;28;20060;-76
2020/12/10 02:53:40;;;;;;;23.92;9.13;;;3.60;99.90;;;;;;5067719;28;20021;-76
2020/12/10 02:56:11;;;;;;;44.60;10.65;;;3.60;99.90;;;;;;5066413;28;20029;-76
2020/12/10 02:58:38;;;;;;;24.15;9.30;;;3.60;99.90;;;;;;5067566;28;20104;-76
2020/12/10 03:01:07;;;;;;;23.70;8.68;;;3.60;99.90;;;;;;5067605;28;20021;-76
2020/12/10 03:03:33;;;;;;;30.55;9.20;;;3.60;99.90;;;;;;5067184;28;20076;-76
2020/12/10 03:05:59;;;;;;;20.17;8.93;;;3.60;99.90;;;;;;5069602;28;20047;-76
2020/12/10 03:08:25;;;;;;;25.02;10.65;;;3.60;99.90;;;;;;5068335;28;20025;-77
2020/12/10 03:10:52;;;;;;;23.55;8.57;;;3.60;99.90;;;;;;5067472;28;20045;-76
2020/12/10 03:13:18;;;;;;;14.90;7.07;;;3.60;99.90;;;;;;5067584;28;20321;-76
2020/12/10 03:15:44;;;;;;;21.77;8.82;;;3.60;99.90;;;;;;5067454;28;20519;-76
2020/12/10 03:18:10;;;;;;;31.02;9.82;;;3.60;99.90;;;;;;5067173;28;20038;-77
2020/12/10 03:20:35;;;;;;;28.08;9.23;;;3.60;99.90;;;;;;5065802;28;20025;-76
2020/12/10 03:23:01;;;;;;;24.85;9.77;;;3.60;99.90;;;;;;5066132;28;20032;-77
2020/12/10 03:25:27;;;;;;;17.52;7.93;;;3.60;99.90;;;;;;5066910;28;20021;-76
2020/12/10 03:27:53;;;;;;;21.73;7.97;;;3.60;99.90;;;;;;5067498;28;20052;-77
2020/12/10 03:30:18;;;;;;;19.52;8.07;;;3.60;99.90;;;;;;5067100;28;20474;-76
2020/12/10 03:32:44;;;;;;;20.08;8.15;;;3.60;99.90;;;;;;5067146;28;20121;-76
2020/12/10 03:35:09;;;;;;;24.10;9.93;;;3.60;99.90;;;;;;5065736;28;20052;-76
2020/12/10 03:37:35;;;;;;;38.13;10.20;;;3.70;99.90;;;;;;5065762;28;20029;-77
2020/12/10 03:40:01;;;;;;;20.00;8.25;;;3.60;99.90;;;;;;5065554;28;20029;-77
2020/12/10 03:42:26;;;;;;;23.88;8.52;;;3.60;99.90;;;;;;5066937;28;20535;-77
2020/12/10 03:44:52;;;;;;;26.63;11.20;;;3.60;99.90;;;;;;5065790;28;20401;-76
2020/12/10 03:47:18;;;;;;;22.17;7.97;;;3.60;99.90;;;;;;5065574;28;20128;-77
2020/12/10 03:49:43;;;;;;;27.85;9.13;;;3.60;99.90;;;;;;5066917;28;20021;-76
2020/12/10 03:52:09;;;;;;;28.73;10.60;;;3.60;99.90;;;;;;5066492;28;20030;-76
2020/12/10 03:54:34;;;;;;;26.73;10.05;;;3.60;99.90;;;;;;5065102;28;20021;-77
2020/12/10 03:57:01;;;;;;;22.10;9.57;;;3.60;99.90;;;;;;5065010;28;20040;-76
2020/12/10 03:59:27;;;;;;;27.35;10.63;;;3.60;99.90;;;;;;5066419;28;20343;-77
2020/12/10 04:01:54;;;;;;;31.15;9.57;;;3.60;99.90;;;;;;5066723;28;20025;-76
2020/12/10 04:04:19;;;;;;;25.65;8.55;;;3.70;99.90;;;;;;5066477;28;20037;-76
2020/12/10 04:06:45;;;;;;;29.15;10.90;;;3.60;99.90;;;;;;5066331;28;20032;-77
2020/12/10 04:09:11;;;;;;;38.65;11.73;;;3.60;99.90;;;;;;5066500;28;20029;-76
2020/12/10 04:11:37;;;;;;;30.02;10.85;;;3.60;99.90;;;;;;5066200;28;20029;-76
2020/12/10 04:14:02;;;;;;;25.15;8.85;;;3.60;99.90;;;;;;5064834;28;20040;-76
2020/12/10 04:16:28;;;;;;;29.60;11.38;;;3.60;99.90;;;;;;5066053;28;20025;-76
2020/12/10 04:18:53;;;;;;;24.63;9.57;;;3.60;99.90;;;;;;5065042;28;20075;-77
2020/12/10 04:21:19;;;;;;;25.75;10.38;;;3.60;99.90;;;;;;5066266;28;20021;-76
2020/12/10 04:23:45;;;;;;;36.25;10.80;;;3.60;99.90;;;;;;5065937;28;20025;-76
2020/12/10 04:26:14;;;;;;;22.48;8.82;;;3.60;99.90;;;;;;5066296;28;20055;-76
2020/12/10 04:28:40;;;;;;;31.00;9.65;;;3.50;99.90;;;;;;5065871;28;20017;-76
2020/12/10 04:31:06;;;;;;;36.17;9.70;;;3.50;99.90;;;;;;5065869;28;20033;-76
2020/12/10 04:33:32;;;;;;;24.23;9.00;;;3.50;99.90;;;;;;5065724;28;20099;-77
2020/12/10 04:35:57;;;;;;;28.50;9.40;;;3.50;99.90;;;;;;5065471;28;20048;-76
2020/12/10 04:38:24;;;;;;;34.45;9.60;;;3.50;99.90;;;;;;5064334;28;20021;-76
2020/12/10 04:40:50;;;;;;;23.75;10.00;;;3.50;99.90;;;;;;5065707;28;20083;-76
2020/12/10 04:43:16;;;;;;;18.95;8.82;;;3.50;99.90;;;;;;5065515;28;20477;-76
2020/12/10 04:45:42;;;;;;;20.02;8.38;;;3.50;99.90;;;;;;5065680;28;20063;-76
2020/12/10 04:48:08;;;;;;;26.45;10.27;;;3.50;99.90;;;;;;5065534;28;20021;-77
2020/12/10 04:50:36;;;;;;;30.25;9.30;;;3.50;99.90;;;;;;5065442;28;20043;-76
2020/12/10 04:53:03;;;;;;;19.60;9.60;;;3.50;99.90;;;;;;5065599;28;20024;-76
2020/12/10 04:55:30;;;;;;;23.75;9.48;;;3.50;99.90;;;;;;5065633;28;20025;-76
2020/12/10 04:57:59;;;;;;;30.58;9.48;;;3.50;99.90;;;;;;5065330;28;20024;-76
2020/12/10 05:00:26;;;;;;;43.55;10.95;;;3.50;99.90;;;;;;5065145;28;20067;-75
2020/12/10 05:02:52;;;;;;;34.10;10.82;;;3.50;99.90;;;;;;5063991;28;20346;-75
2020/12/10 05:05:24;;;;;;;27.10;9.02;;;3.50;99.90;;;;;;5065363;28;20036;-74
2020/12/10 05:07:50;;;;;;;21.75;9.15;;;3.50;99.90;;;;;;5065404;28;20017;-74
2020/12/10 05:10:16;;;;;;;48.75;10.63;;;3.60;99.90;;;;;;5065006;28;20029;-75
2020/12/10 05:12:43;;;;;;;29.67;10.75;;;3.60;99.90;;;;;;5064975;28;20377;-75
2020/12/10 05:15:10;;;;;;;36.63;9.93;;;3.60;99.90;;;;;;5063811;28;20019;-74
2020/12/10 05:17:35;;;;;;;34.45;10.50;;;3.60;99.90;;;;;;5058550;28;20017;-76
2020/12/10 05:20:05;;;;;;;43.45;10.52;;;3.60;99.90;;;;;;5064708;28;20384;-76
2020/12/10 05:22:31;;;;;;;41.65;12.00;;;3.60;99.90;;;;;;5063577;28;20047;-76
2020/12/10 05:25:01;;;;;;;31.73;10.48;;;3.50;99.90;;;;;;5063601;28;20025;-76
2020/12/10 05:27:28;;;;;;;39.58;10.90;;;3.60;99.90;;;;;;5063667;28;20020;-76
2020/12/10 05:30:01;;;;;;;37.22;9.52;;;3.60;99.90;;;;;;5064314;28;20036;-76
2020/12/10 05:32:42;;;;;;;29.55;10.82;;;3.60;99.90;;;;;;5064618;28;20021;-75
2020/12/10 05:35:13;;;;;;;29.25;9.93;;;3.60;99.90;;;;;;5064535;28;20016;-75
2020/12/10 05:37:40;;;;;;;40.65;11.55;;;3.60;99.90;;;;;;5063464;28;20047;-75
2020/12/10 05:40:06;;;;;;;32.40;12.13;;;3.50;99.90;;;;;;5064911;28;20021;-74
2020/12/10 05:42:40;;;;;;;37.58;13.23;;;3.60;99.90;;;;;;5064869;28;20027;-75
2020/12/10 05:45:20;;;;;;;35.90;10.82;;;3.60;99.90;;;;;;5063283;28;20021;-75
2020/12/10 05:47:59;;;;;;;31.48;10.82;;;3.60;99.90;;;;;;5064511;28;20523;-74
2020/12/10 05:50:28;;;;;;;44.72;10.50;;;3.70;99.90;;;;;;5063070;28;20059;-75
2020/12/10 05:53:09;;;;;;;38.38;12.27;;;3.50;99.90;;;;;;5063465;28;20029;-76
2020/12/10 05:55:36;;;;;;;49.03;13.05;;;3.50;99.90;;;;;;5064497;28;20072;-74
2020/12/10 05:58:03;;;;;;;38.75;11.13;;;3.50;99.90;;;;;;5064444;28;20410;-74
2020/12/10 06:00:29;;;;;;;36.15;12.63;;;3.60;99.90;;;;;;5064573;28;20036;-75
2020/12/10 06:02:56;;;;;;;38.55;12.40;;;3.50;99.90;;;;;;5063074;28;20045;-75
2020/12/10 06:05:23;;;;;;;49.25;12.35;;;3.50;99.90;;;;;;5064770;28;20021;-75
2020/12/10 06:08:15;;;;;;;56.17;14.50;;;3.60;99.90;;;;;;5064361;28;20044;-75
2020/12/10 06:10:42;;;;;;;50.05;13.85;;;3.60;99.90;;;;;;5063782;28;20045;-74
2020/12/10 06:13:09;;;;;;;43.30;13.45;;;3.60;99.90;;;;;;5064298;28;20027;-74
2020/12/10 06:15:37;;;;;;;52.60;13.77;;;3.60;99.90;;;;;;5064198;28;20070;-75
2020/12/10 06:18:09;;;;;;;48.17;13.00;;;3.60;99.90;;;;;;5064374;28;20105;-75
2020/12/10 06:20:43;;;;;;;59.70;14.07;;;3.60;99.90;;;;;;5064174;28;20104;-75
2020/12/10 06:23:28;;;;;;;40.67;13.15;;;3.60;99.90;;;;;;5064256;28;20021;-74
2020/12/10 06:25:56;;;;;;;41.58;14.85;;;3.60;99.90;;;;;;5064359;28;20063;-75
2020/12/10 06:28:25;;;;;;;44.53;15.07;;;3.60;99.90;;;;;;5063077;28;20025;-74
2020/12/10 06:31:12;;;;;;;50.65;13.25;;;3.60;99.90;;;;;;5064048;28;20107;-75
2020/12/10 06:33:43;;;;;;;40.17;10.88;;;3.60;99.90;;;;;;5063990;28;20029;-75
2020/12/10 06:36:28;;;;;;;50.05;12.90;;;3.60;99.90;;;;;;5064143;28;20025;-75
2020/12/10 06:38:58;;;;;;;47.25;14.23;;;3.70;99.90;;;;;;5061064;28;20025;-76
2020/12/10 06:41:24;;;;;;;38.50;13.15;;;3.70;99.90;;;;;;5063625;28;20064;-76
2020/12/10 06:43:50;;;;;;;50.17;15.13;;;3.70;99.90;;;;;;5063882;28;20033;-75
2020/12/10 06:46:16;;;;;;;65.30;12.75;;;3.70;99.90;;;;;;5063324;28;20021;-76
2020/12/10 06:48:43;;;;;;;56.70;15.10;;;3.70;99.90;;;;;;5063493;28;20021;-76
2020/12/10 06:51:13;;;;;;;47.20;14.32;;;3.70;99.90;;;;;;5062100;28;20111;-75
2020/12/10 06:53:39;;;;;;;38.95;12.48;;;3.80;99.90;;;;;;5063631;28;20021;-75
2020/12/10 06:56:09;;;;;;;45.20;11.88;;;3.80;99.90;;;;;;5063475;28;20025;-75
2020/12/10 06:58:37;;;;;;;36.72;12.07;;;3.80;99.90;;;;;;5063677;28;20014;-76
2020/12/10 07:01:29;;;;;;;57.30;13.57;;;3.80;99.90;;;;;;5066226;28;20017;-76
2020/12/10 07:04:21;;;;;;;47.75;12.90;;;3.80;99.90;;;;;;5065588;28;20075;-76
2020/12/10 07:07:13;;;;;;;53.80;13.80;;;3.80;99.90;;;;;;5066910;28;20051;-74
2020/12/10 07:10:08;;;;;;;48.08;13.50;;;3.80;99.90;;;;;;5065273;28;20017;-74
2020/12/10 07:12:41;;;;;;;49.78;14.20;;;3.80;99.90;;;;;;5061201;28;20098;-74
2020/12/10 07:15:28;;;;;;;49.35;13.65;;;3.80;99.90;;;;;;5067165;28;20021;-74
2020/12/10 07:17:57;;;;;;;43.50;11.73;;;3.80;99.90;;;;;;5065947;28;20093;-76
2020/12/10 07:20:28;;;;;;;42.97;12.75;;;3.80;99.90;;;;;;5066059;28;20420;-75
2020/12/10 07:22:55;;;;;;;51.67;13.52;;;3.80;99.90;;;;;;5067503;28;20066;-75
2020/12/10 07:25:22;;;;;;;48.47;14.02;;;3.80;99.90;;;;;;5067089;28;20029;-74
2020/12/10 07:27:48;;;;;;;41.60;11.82;;;3.80;99.90;;;;;;5065477;28;20021;-75
2020/12/10 07:30:18;;;;;;;44.50;13.38;;;3.80;99.90;;;;;;5066886;28;20033;-73
2020/12/10 07:32:44;;;;;;;46.92;15.77;;;3.80;99.90;;;;;;5066680;28;20017;-74
2020/12/10 07:35:11;;;;;;;43.00;12.38;;;3.80;99.90;;;;;;5065296;28;20025;-74
2020/12/10 07:37:39;;;;;;;37.17;12.80;;;3.80;99.90;;;;;;5066762;28;20017;-74
2020/12/10 07:40:16;;;;;;;48.35;13.15;;;3.80;99.90;;;;;;5066887;28;20029;-73
2020/12/10 07:42:42;;;;;;;34.95;14.02;;;3.90;99.90;;;;;;5066309;28;20021;-74
2020/12/10 07:45:16;;;;;;;34.60;12.65;;;3.80;99.90;;;;;;5064855;28;20088;-74
2020/12/10 07:47:42;;;;;;;38.08;12.27;;;3.80;99.90;;;;;;5065891;28;20032;-74
2020/12/10 07:50:22;;;;;;;48.60;13.52;;;3.80;99.90;;;;;;5066215;28;20083;-74
2020/12/10 07:52:49;;;;;;;43.42;11.60;;;3.90;99.90;;;;;;5064729;28;20024;-74
2020/12/10 07:55:17;;;;;;;41.33;12.65;;;3.90;99.90;;;;;;5066123;28;20158;-74
2020/12/10 07:57:52;;;;;;;31.63;12.80;;;3.90;99.90;;;;;;5066169;28;20432;-74
2020/12/10 08:00:23;;;;;;;50.38;13.88;;;3.90;99.90;;;;;;5064727;28;20067;-74
2020/12/10 08:03:06;;;;;;;38.50;11.05;;;3.90;99.90;;;;;;5064359;28;20025;-73
2020/12/10 08:05:33;;;;;;;54.85;13.55;;;3.90;99.90;;;;;;5065905;28;20027;-74
2020/12/10 08:07:59;;;;;;;35.22;12.13;;;3.90;99.90;;;;;;5065293;28;20028;-74
2020/12/10 08:10:33;;;;;;;34.10;12.68;;;3.90;99.90;;;;;;5065592;28;20052;-76
2020/12/10 08:13:14;;;;;;;;;;;3.90;99.90;;;;;;5064169;28;20048;-74
2020/12/10 08:15:45;;;;;;;49.70;12.30;;;3.90;99.90;;;;;;5065566;28;19908;-74
2020/12/10 08:18:13;;;;;;;24.15;12.90;;;3.90;99.90;;;;;;5064482;28;20021;-74
2020/12/10 08:20:51;;;;;;;53.65;13.05;;;3.90;99.90;;;;;;5064202;28;20017;-74
2020/12/10 08:23:19;;;;;;;37.55;12.65;;;3.80;99.90;;;;;;5065606;28;20035;-73
2020/12/10 08:25:46;;;;;;;56.90;15.88;;;3.80;99.90;;;;;;5064270;28;20025;-74
2020/12/10 08:28:15;;;;;;;44.55;13.00;;;3.90;99.90;;;;;;5064972;28;20020;-73
2020/12/10 08:30:52;;;;;;;58.25;14.48;;;3.90;99.90;;;;;;5064424;28;20054;-74
2020/12/10 08:33:18;;;;;;;28.38;12.02;;;3.90;99.90;;;;;;5065114;28;20017;-74
2020/12/10 08:35:45;;;;;;;44.50;14.02;;;4.00;99.90;;;;;;5065629;28;20067;-74
2020/12/10 08:38:11;;;;;;;36.92;13.38;;;4.10;99.90;;;;;;5065167;28;20044;-74
2020/12/10 08:40:37;;;;;;;50.25;15.85;;;4.00;99.90;;;;;;5063770;28;20032;-74
2020/12/10 08:43:14;;;;;;;51.15;14.50;;;4.00;99.90;;;;;;5065056;28;20109;-74
2020/12/10 08:45:45;;;;;;;43.35;12.88;;;4.00;99.90;;;;;;5065131;28;20492;-76
2020/12/10 08:48:16;;;;;;;45.45;12.82;;;4.00;99.90;;;;;;5065085;28;20076;-74
2020/12/10 08:50:53;;;;;;;32.00;12.00;;;4.10;99.90;;;;;;5064998;28;20039;-74
2020/12/10 08:53:19;;;;;;;47.35;13.88;;;4.10;99.90;;;;;;5065199;28;20032;-74
2020/12/10 08:55:50;;;;;;;45.05;14.15;;;4.10;99.90;;;;;;5063618;28;20029;-74
2020/12/10 08:58:23;;;;;;;45.40;12.13;;;4.20;99.90;;;;;;5065110;28;20469;-74
2020/12/10 09:00:50;;;;;;;39.10;11.57;;;4.10;99.90;;;;;;5065009;28;20017;-74
2020/12/10 09:03:16;;;;;;;41.30;12.15;;;4.20;99.90;;;;;;5064701;28;20056;-74
2020/12/10 09:05:42;;;;;;;34.58;12.10;;;4.20;99.90;;;;;;5063509;28;20025;-74
2020/12/10 09:08:08;;;;;;;40.13;9.80;;;4.20;99.90;;;;;;5063614;28;20032;-74
2020/12/10 09:10:34;;;;;;;27.88;11.07;;;4.20;99.90;;;;;;5064676;28;20055;-75
2020/12/10 09:13:01;;;;;;;28.50;10.93;;;4.20;99.90;;;;;;5065138;28;20027;-75
2020/12/10 09:15:29;;;;;;;42.25;11.55;;;4.20;99.90;;;;;;5064805;28;20021;-76
2020/12/10 09:17:56;;;;;;;32.88;10.25;;;4.20;99.90;;;;;;5064855;28;20036;-76
2020/12/10 09:20:22;;;;;;;33.58;10.95;;;4.30;99.90;;;;;;5064941;28;20028;-75
2020/12/10 09:22:48;;;;;;;37.47;10.80;;;4.30;99.90;;;;;;5064189;28;20021;-75
2020/12/10 09:25:14;;;;;;;43.67;11.93;;;4.30;99.90;;;;;;5064707;28;20110;-76
2020/12/10 09:27:40;;;;;;;31.08;11.77;;;4.30;99.90;;;;;;5063389;28;20139;-75
2020/12/10 09:30:07;;;;;;;34.95;11.35;;;4.30;99.90;;;;;;5064699;28;20036;-76
2020/12/10 09:32:35;;;;;;;45.63;11.85;;;4.30;99.90;;;;;;5064621;28;20588;-76
2020/12/10 09:35:06;;;;;;;34.33;11.02;;;4.30;99.90;;;;;;5064832;28;20025;-76
2020/12/10 09:37:33;;;;;;;44.08;11.00;;;4.30;99.90;;;;;;5064644;28;20033;-76
2020/12/10 09:39:59;;;;;;;26.00;10.30;;;4.30;99.90;;;;;;5064659;28;20048;-77
2020/12/10 09:42:25;;;;;;;36.20;10.73;;;4.30;99.90;;;;;;5064611;28;20029;-77
2020/12/10 09:44:50;;;;;;;27.70;10.80;;;4.30;99.90;;;;;;5064666;28;20021;-75
2020/12/10 09:47:16;;;;;;;27.70;9.98;;;4.20;99.90;;;;;;5062893;28;20094;-75
2020/12/10 09:49:42;;;;;;;27.70;10.57;;;4.30;99.90;;;;;;5064570;28;20322;-76
2020/12/10 09:52:08;;;;;;;36.50;10.02;;;4.30;99.90;;;;;;5064054;28;20025;-76
2020/12/10 09:54:50;;;;;;;36.28;10.65;;;4.30;99.90;;;;;;5062866;28;20018;-77
2020/12/10 09:59:48;;;;;;;24.75;9.27;;;4.30;99.90;;;;;;5064258;28;20021;-74
2020/12/10 10:02:16;;;;;;;36.28;10.90;;;4.30;99.90;;;;;;5064247;28;20081;-77
2020/12/10 10:04:42;;;;;;;32.03;9.90;;;4.30;99.90;;;;;;5063967;28;20124;-77
2020/12/10 10:07:08;;;;;;;42.70;15.15;;;4.40;99.90;;;;;;5064376;28;20115;-78
2020/12/10 10:09:34;;;;;;;28.65;9.82;;;4.40;99.90;;;;;;5062893;28;20021;-78
2020/12/10 10:12:00;;;;;;;39.67;12.07;;;4.50;99.90;;;;;;5064276;28;20507;-78
2020/12/10 10:14:28;;;;;;;23.67;9.38;;;4.50;99.90;;;;;;5063080;28;20027;-78
2020/12/10 10:16:56;;;;;;;32.03;9.10;;;4.60;99.90;;;;;;5063003;28;20025;-77
2020/12/10 10:19:21;;;;;;;25.35;10.73;;;4.50;99.90;;;;;;5064208;28;20033;-78
2020/12/10 10:21:47;;;;;;;36.63;11.02;;;4.50;99.90;;;;;;5064109;28;20025;-78
2020/12/10 10:24:13;;;;;;;23.70;9.88;;;4.50;99.90;;;;;;5062795;28;20025;-77
2020/12/10 10:26:38;;;;;;;29.17;10.00;;;4.50;99.90;;;;;;5062340;28;20100;-78
2020/12/10 10:29:07;;;;;;;25.55;8.85;;;4.50;99.90;;;;;;5064216;28;20021;-78
2020/12/10 10:31:33;;;;;;;29.65;9.00;;;4.60;99.90;;;;;;5063690;28;20024;-78
2020/12/10 10:33:58;;;;;;;26.42;8.88;;;4.60;99.90;;;;;;5064213;28;20040;-78
2020/12/10 10:36:24;;;;;;;21.63;8.60;;;4.70;99.90;;;;;;5068017;28;20025;-79
2020/12/10 10:38:50;;;;;;;39.00;7.97;;;4.60;99.90;;;;;;5068019;28;20065;-78
2020/12/10 10:41:15;;;;;;;22.17;7.43;;;4.60;99.90;;;;;;5067550;28;20025;-78
2020/12/10 10:43:41;;;;;;;21.75;7.75;;;4.60;99.90;;;;;;5066232;28;20083;-77
2020/12/10 10:46:07;;;;;;;17.88;6.60;;;4.60;99.90;;;;;;5066378;28;20017;-78
2020/12/10 10:48:32;;;;;;;18.00;7.35;;;4.70;99.90;;;;;;5065822;28;20411;-78
2020/12/10 10:50:58;;;;;;;17.60;6.85;;;4.70;99.90;;;;;;5066323;28;20029;-79
2020/12/10 10:53:25;;;;;;;16.27;7.45;;;4.70;99.90;;;;;;5067998;28;20012;-79
2020/12/10 10:55:52;;;;;;;17.73;6.53;;;4.70;99.90;;;;;;5066588;28;20108;-78
2020/12/10 10:58:17;;;;;;;16.00;6.50;;;4.80;99.90;;;;;;5066776;28;20013;-78
2020/12/10 11:00:49;;;;;;;20.35;8.07;;;4.80;99.90;;;;;;5067188;28;20092;-78
2020/12/10 11:03:14;;;;;;;18.70;7.45;;;4.80;99.90;;;;;;5065812;28;20048;-78
2020/12/10 11:05:40;;;;;;;21.02;6.82;;;4.80;99.90;;;;;;5066258;28;20021;-78
2020/12/10 11:08:06;;;;;;;22.67;7.05;;;4.80;99.90;;;;;;5067327;28;20025;-78
2020/12/10 11:10:31;;;;;;;26.00;6.45;;;4.80;99.90;;;;;;5065760;28;20037;-78
2020/12/10 11:12:57;;;;;;;17.13;7.10;;;4.80;99.90;;;;;;5067453;28;20025;-78
2020/12/10 11:15:24;;;;;;;14.98;6.25;;;4.80;99.90;;;;;;5066348;28;20021;-77
2020/12/10 11:17:49;;;;;;;16.33;7.00;;;4.80;99.90;;;;;;5067334;28;20104;-77
2020/12/10 11:20:15;;;;;;;17.38;5.93;;;4.80;99.90;;;;;;5065481;28;20025;-77
2020/12/10 11:22:41;;;;;;;21.60;7.82;;;4.80;99.90;;;;;;5067170;28;20076;-78
2020/12/10 11:25:06;;;;;;;20.10;7.32;;;4.80;99.90;;;;;;5069490;28;20024;-79
2020/12/10 11:27:33;;;;;;;16.73;6.88;;;4.70;99.90;;;;;;5072067;28;20080;-78
2020/12/10 11:30:00;;;;;;;24.00;7.25;;;4.70;99.90;;;;;;5067234;28;20327;-78
2020/12/10 11:32:27;;;;;;;19.02;7.05;;;4.80;99.90;;;;;;5067307;28;20017;-80
2020/12/10 11:34:52;;;;;;;13.20;5.82;;;4.70;99.90;;;;;;5068559;28;20098;-77
2020/12/10 11:37:21;;;;;;;16.52;5.97;;;4.70;99.90;;;;;;5066582;28;20515;-79
2020/12/10 11:39:46;;;;;;;21.95;6.78;;;4.80;99.90;;;;;;5046684;28;20805;-78
2020/12/10 11:42:12;;;;;;;17.42;7.63;;;4.80;99.90;;;;;;5046889;28;20021;-78
2020/12/10 11:44:41;;;;;;;24.15;7.10;;;4.80;99.90;;;;;;5047345;28;20101;-78
2020/12/10 11:47:06;;;;;;;18.33;6.95;;;4.90;99.90;;;;;;5047698;28;20022;-78
2020/12/10 11:49:32;;;;;;;23.02;7.82;;;4.80;99.90;;;;;;5047887;28;20022;-79
2020/12/10 11:51:58;;;;;;;19.02;6.40;;;4.80;99.90;;;;;;5047500;28;20040;-79
2020/12/10 11:54:26;;;;;;;12.52;5.90;;;4.80;99.90;;;;;;5046498;28;20056;-78
2020/12/10 11:56:57;;;;;;;16.58;5.63;;;4.80;99.90;;;;;;5046886;28;20382;-78
2020/12/10 11:59:24;;;;;;;16.63;7.05;;;4.70;99.90;;;;;;5046272;28;20116;-77
2020/12/10 12:01:50;;;;;;;13.40;6.40;;;4.70;99.90;;;;;;5046353;28;20025;-77
2020/12/10 12:04:17;;;;;;;12.20;5.55;;;4.70;99.90;;;;;;5045015;28;20054;-78
2020/12/10 12:06:44;;;;;;;11.05;6.00;;;4.70;99.90;;;;;;5045521;28;20018;-78
2020/12/10 12:09:10;;;;;;;13.30;5.45;;;4.70;99.90;;;;;;5045261;28;20024;-78
2020/12/10 12:11:36;;;;;;;20.67;6.38;;;4.70;99.90;;;;;;5044644;28;20021;-76
2020/12/10 12:14:01;;;;;;;15.50;6.47;;;4.70;99.90;;;;;;5044011;28;20112;-77
2020/12/10 12:16:27;;;;;;;16.77;6.40;;;4.70;99.90;;;;;;5044044;28;20024;-76
2020/12/10 12:18:54;;;;;;;11.18;5.25;;;4.70;99.90;;;;;;5045434;28;20424;-76
2020/12/10 12:21:24;;;;;;;14.30;6.38;;;4.80;99.90;;;;;;5045249;28;20068;-77
2020/12/10 12:23:51;;;;;;;17.83;6.60;;;4.70;99.90;;;;;;5043653;28;20027;-76
2020/12/10 12:26:18;;;;;;;26.80;7.28;;;4.70;99.90;;;;;;5043567;28;20036;-76
2020/12/10 12:28:45;;;;;;;15.52;6.18;;;4.80;99.90;;;;;;5044904;28;20030;-77
2020/12/10 12:31:12;;;;;;;16.92;5.72;;;4.80;99.90;;;;;;5044932;28;20029;-76
2020/12/10 12:33:37;;;;;;;18.45;6.20;;;4.70;99.90;;;;;;5044867;28;20040;-77
2020/12/10 12:36:07;;;;;;;10.23;5.43;;;4.70;99.90;;;;;;5043433;28;20021;-77
2020/12/10 12:38:33;;;;;;;22.30;7.75;;;4.70;99.90;;;;;;5044853;28;20025;-77
2020/12/10 12:41:00;;;;;;;17.48;7.07;;;4.80;99.90;;;;;;5045078;28;20052;-78
2020/12/10 12:43:25;;;;;;;13.02;5.78;;;4.80;99.90;;;;;;5043461;28;20082;-78
2020/12/10 12:45:51;;;;;;;17.13;6.65;;;4.80;99.90;;;;;;5043262;28;20100;-77
2020/12/10 12:48:16;;;;;;;21.83;7.00;;;4.90;99.90;;;;;;5044763;28;20020;-77